sensor_id;sensor_type;location;lat;lon;timestamp;temperature;humidity
78438;SHT31;67736;51.978;5.656;2023-03-01T00:02:10;3.6;49.7
78438;SHT31;67736;51.978;5.656;2023-03-01T00:04:40;3.6;50.0
78438;SHT31;67736;51.978;5.656;2023-03-01T00:07:09;3.6;49.8
78438;SHT31;67736;51.978;5.656;2023-03-01T00:09:39;3.6;49.7
78438;SHT31;67736;51.978;5.656;2023-03-01T00:12:09;3.6;50.0
78438;SHT31;67736;51.978;5.656;2023-03-01T00:14:39;3.5;49.4
78438;SHT31;67736;51.978;5.656;2023-03-01T00:17:08;3.5;50.0
78438;SHT31;67736;51.978;5.656;2023-03-01T00:19:40;3.5;49.7
78438;SHT31;67736;51.978;5.656;2023-03-01T00:22:10;3.5;50.0
78438;SHT31;67736;51.978;5.656;2023-03-01T00:24:40;3.5;49.8
78438;SHT31;67736;51.978;5.656;2023-03-01T00:27:09;3.4;49.8
78438;SHT31;67736;51.978;5.656;2023-03-01T00:29:41;3.4;49.7
78438;SHT31;67736;51.978;5.656;2023-03-01T00:32:11;3.4;50.1
78438;SHT31;67736;51.978;5.656;2023-03-01T00:34:40;3.4;50.2
78438;SHT31;67736;51.978;5.656;2023-03-01T00:37:10;3.3;50.3
78438;SHT31;67736;51.978;5.656;2023-03-01T00:39:41;3.3;50.5
78438;SHT31;67736;51.978;5.656;2023-03-01T00:42:11;3.3;50.5
78438;SHT31;67736;51.978;5.656;2023-03-01T00:44:41;3.2;50.8
78438;SHT31;67736;51.978;5.656;2023-03-01T00:47:10;3.2;50.7
78438;SHT31;67736;51.978;5.656;2023-03-01T00:49:41;3.2;50.6
78438;SHT31;67736;51.978;5.656;2023-03-01T00:52:11;3.2;50.7
78438;SHT31;67736;51.978;5.656;2023-03-01T00:54:40;3.2;51.0
78438;SHT31;67736;51.978;5.656;2023-03-01T00:57:10;3.2;51.2
78438;SHT31;67736;51.978;5.656;2023-03-01T00:59:39;3.2;50.9
78438;SHT31;67736;51.978;5.656;2023-03-01T01:02:09;3.2;50.7
78438;SHT31;67736;51.978;5.656;2023-03-01T01:04:39;3.2;50.6
78438;SHT31;67736;51.978;5.656;2023-03-01T01:07:08;3.1;50.8
78438;SHT31;67736;51.978;5.656;2023-03-01T01:09:38;3.1;50.7
78438;SHT31;67736;51.978;5.656;2023-03-01T01:12:08;3.1;50.8
78438;SHT31;67736;51.978;5.656;2023-03-01T01:14:38;3.1;51.0
78438;SHT31;67736;51.978;5.656;2023-03-01T01:17:08;3.1;51.1
78438;SHT31;67736;51.978;5.656;2023-03-01T01:19:39;3.0;51.4
78438;SHT31;67736;51.978;5.656;2023-03-01T01:22:09;3.0;51.4
78438;SHT31;67736;51.978;5.656;2023-03-01T01:24:40;3.0;51.0
78438;SHT31;67736;51.978;5.656;2023-03-01T01:27:10;3.0;51.3
78438;SHT31;67736;51.978;5.656;2023-03-01T01:29:39;2.9;51.5
78438;SHT31;67736;51.978;5.656;2023-03-01T01:32:09;2.9;51.6
78438;SHT31;67736;51.978;5.656;2023-03-01T01:34:39;2.9;52.0
78438;SHT31;67736;51.978;5.656;2023-03-01T01:37:09;2.9;52.0
78438;SHT31;67736;51.978;5.656;2023-03-01T01:39:38;2.8;52.1
78438;SHT31;67736;51.978;5.656;2023-03-01T01:42:10;2.8;52.2
78438;SHT31;67736;51.978;5.656;2023-03-01T01:44:46;2.8;52.3
78438;SHT31;67736;51.978;5.656;2023-03-01T01:47:19;2.7;52.4
78438;SHT31;67736;51.978;5.656;2023-03-01T01:49:53;2.6;52.7
78438;SHT31;67736;51.978;5.656;2023-03-01T01:52:26;2.6;52.5
78438;SHT31;67736;51.978;5.656;2023-03-01T01:55:02;2.5;52.5
78438;SHT31;67736;51.978;5.656;2023-03-01T01:57:37;2.5;52.9
78438;SHT31;67736;51.978;5.656;2023-03-01T02:00:10;2.5;52.8
78438;SHT31;67736;51.978;5.656;2023-03-01T02:02:43;2.5;52.7
78438;SHT31;67736;51.978;5.656;2023-03-01T02:05:19;2.5;52.7
78438;SHT31;67736;51.978;5.656;2023-03-01T02:07:53;2.5;52.6
78438;SHT31;67736;51.978;5.656;2023-03-01T02:10:24;2.5;52.7
78438;SHT31;67736;51.978;5.656;2023-03-01T02:12:56;2.5;52.7
78438;SHT31;67736;51.978;5.656;2023-03-01T02:15:25;2.5;52.3
78438;SHT31;67736;51.978;5.656;2023-03-01T02:17:56;2.5;52.6
78438;SHT31;67736;51.978;5.656;2023-03-01T02:20:35;2.5;52.3
78438;SHT31;67736;51.978;5.656;2023-03-01T02:23:07;2.5;52.5
78438;SHT31;67736;51.978;5.656;2023-03-01T02:25:46;2.4;52.6
78438;SHT31;67736;51.978;5.656;2023-03-01T02:28:23;2.4;52.3
78438;SHT31;67736;51.978;5.656;2023-03-01T02:30:53;2.4;52.6
78438;SHT31;67736;51.978;5.656;2023-03-01T02:33:39;2.4;53.1
78438;SHT31;67736;51.978;5.656;2023-03-01T02:36:14;2.4;53.1
78438;SHT31;67736;51.978;5.656;2023-03-01T02:38:45;2.3;52.8
78438;SHT31;67736;51.978;5.656;2023-03-01T02:41:17;2.3;52.9
78438;SHT31;67736;51.978;5.656;2023-03-01T02:43:49;2.3;52.8
78438;SHT31;67736;51.978;5.656;2023-03-01T02:46:20;2.3;52.6
78438;SHT31;67736;51.978;5.656;2023-03-01T02:48:52;2.3;52.4
78438;SHT31;67736;51.978;5.656;2023-03-01T02:51:58;2.3;52.6
78438;SHT31;67736;51.978;5.656;2023-03-01T02:54:36;2.3;52.4
78438;SHT31;67736;51.978;5.656;2023-03-01T02:57:07;2.3;52.3
78438;SHT31;67736;51.978;5.656;2023-03-01T02:59:40;2.3;52.2
78438;SHT31;67736;51.978;5.656;2023-03-01T03:02:21;2.3;52.4
78438;SHT31;67736;51.978;5.656;2023-03-01T03:04:56;2.3;52.3
78438;SHT31;67736;51.978;5.656;2023-03-01T03:07:26;2.3;53.0
78438;SHT31;67736;51.978;5.656;2023-03-01T03:09:55;2.3;52.3
78438;SHT31;67736;51.978;5.656;2023-03-01T03:12:25;2.3;51.9
78438;SHT31;67736;51.978;5.656;2023-03-01T03:14:54;2.3;52.3
78438;SHT31;67736;51.978;5.656;2023-03-01T03:17:24;2.3;52.6
78438;SHT31;67736;51.978;5.656;2023-03-01T03:19:54;2.3;52.5
78438;SHT31;67736;51.978;5.656;2023-03-01T03:22:23;2.3;52.8
78438;SHT31;67736;51.978;5.656;2023-03-01T03:24:54;2.3;52.6
78438;SHT31;67736;51.978;5.656;2023-03-01T03:27:24;2.3;52.5
78438;SHT31;67736;51.978;5.656;2023-03-01T03:29:53;2.3;53.0
78438;SHT31;67736;51.978;5.656;2023-03-01T03:32:23;2.3;52.8
78438;SHT31;67736;51.978;5.656;2023-03-01T03:34:53;2.3;52.9
78438;SHT31;67736;51.978;5.656;2023-03-01T03:37:22;2.3;53.0
78438;SHT31;67736;51.978;5.656;2023-03-01T03:40:09;2.3;53.1
78438;SHT31;67736;51.978;5.656;2023-03-01T03:42:42;2.3;53.2
78438;SHT31;67736;51.978;5.656;2023-03-01T03:45:12;2.2;53.2
78438;SHT31;67736;51.978;5.656;2023-03-01T03:47:42;2.2;53.2
78438;SHT31;67736;51.978;5.656;2023-03-01T03:50:14;2.2;53.6
78438;SHT31;67736;51.978;5.656;2023-03-01T03:52:46;2.2;53.0
78438;SHT31;67736;51.978;5.656;2023-03-01T03:55:16;2.2;52.9
78438;SHT31;67736;51.978;5.656;2023-03-01T03:57:47;2.2;53.1
78438;SHT31;67736;51.978;5.656;2023-03-01T04:00:21;2.2;53.4
78438;SHT31;67736;51.978;5.656;2023-03-01T04:02:53;2.2;53.4
78438;SHT31;67736;51.978;5.656;2023-03-01T04:05:24;2.2;52.9
78438;SHT31;67736;51.978;5.656;2023-03-01T04:07:54;2.2;53.1
78438;SHT31;67736;51.978;5.656;2023-03-01T04:10:33;2.2;53.0
78438;SHT31;67736;51.978;5.656;2023-03-01T04:13:04;2.2;53.1
78438;SHT31;67736;51.978;5.656;2023-03-01T04:15:35;2.2;53.0
78438;SHT31;67736;51.978;5.656;2023-03-01T04:18:06;2.2;53.0
78438;SHT31;67736;51.978;5.656;2023-03-01T04:20:36;2.2;53.0
78438;SHT31;67736;51.978;5.656;2023-03-01T04:23:08;2.2;53.0
78438;SHT31;67736;51.978;5.656;2023-03-01T04:25:46;2.2;53.4
78438;SHT31;67736;51.978;5.656;2023-03-01T04:28:22;2.2;53.3
78438;SHT31;67736;51.978;5.656;2023-03-01T04:30:53;2.2;53.4
78438;SHT31;67736;51.978;5.656;2023-03-01T04:33:24;2.1;53.4
78438;SHT31;67736;51.978;5.656;2023-03-01T04:35:53;2.1;53.2
78438;SHT31;67736;51.978;5.656;2023-03-01T04:38:25;2.1;53.1
78438;SHT31;67736;51.978;5.656;2023-03-01T04:40:54;2.1;53.1
78438;SHT31;67736;51.978;5.656;2023-03-01T04:43:24;2.1;53.2
78438;SHT31;67736;51.978;5.656;2023-03-01T04:45:53;2.1;53.4
78438;SHT31;67736;51.978;5.656;2023-03-01T04:48:23;2.1;53.4
78438;SHT31;67736;51.978;5.656;2023-03-01T04:50:53;2.1;53.4
78438;SHT31;67736;51.978;5.656;2023-03-01T04:53:22;2.1;53.3
78438;SHT31;67736;51.978;5.656;2023-03-01T04:55:54;2.1;53.2
78438;SHT31;67736;51.978;5.656;2023-03-01T04:58:25;2.1;53.0
78438;SHT31;67736;51.978;5.656;2023-03-01T05:00:56;2.1;53.1
78438;SHT31;67736;51.978;5.656;2023-03-01T05:03:26;2.1;53.3
78438;SHT31;67736;51.978;5.656;2023-03-01T05:05:58;2.1;53.3
78438;SHT31;67736;51.978;5.656;2023-03-01T05:08:29;2.1;53.3
78438;SHT31;67736;51.978;5.656;2023-03-01T05:11:01;2.1;53.4
78438;SHT31;67736;51.978;5.656;2023-03-01T05:13:31;2.2;53.1
78438;SHT31;67736;51.978;5.656;2023-03-01T05:16:02;2.2;53.4
78438;SHT31;67736;51.978;5.656;2023-03-01T05:18:33;2.2;52.9
78438;SHT31;67736;51.978;5.656;2023-03-01T05:21:06;2.2;53.2
78438;SHT31;67736;51.978;5.656;2023-03-01T05:23:37;2.2;52.8
78438;SHT31;67736;51.978;5.656;2023-03-01T05:26:08;2.2;53.5
78438;SHT31;67736;51.978;5.656;2023-03-01T05:28:40;2.2;53.8
78438;SHT31;67736;51.978;5.656;2023-03-01T05:31:10;2.2;53.9
78438;SHT31;67736;51.978;5.656;2023-03-01T05:33:40;2.2;53.4
78438;SHT31;67736;51.978;5.656;2023-03-01T05:36:11;2.2;53.5
78438;SHT31;67736;51.978;5.656;2023-03-01T05:38:41;2.2;53.8
78438;SHT31;67736;51.978;5.656;2023-03-01T05:41:15;2.2;53.5
78438;SHT31;67736;51.978;5.656;2023-03-01T05:43:46;2.2;53.6
78438;SHT31;67736;51.978;5.656;2023-03-01T05:46:17;2.2;53.5
78438;SHT31;67736;51.978;5.656;2023-03-01T05:48:47;2.1;53.6
78438;SHT31;67736;51.978;5.656;2023-03-01T05:51:17;2.1;53.5
78438;SHT31;67736;51.978;5.656;2023-03-01T05:53:47;2.1;53.7
78438;SHT31;67736;51.978;5.656;2023-03-01T05:56:16;2.1;53.9
78438;SHT31;67736;51.978;5.656;2023-03-01T05:58:49;2.1;54.0
78438;SHT31;67736;51.978;5.656;2023-03-01T06:01:21;2.1;54.2
78438;SHT31;67736;51.978;5.656;2023-03-01T06:03:50;2.0;54.1
78438;SHT31;67736;51.978;5.656;2023-03-01T06:06:20;2.0;53.9
78438;SHT31;67736;51.978;5.656;2023-03-01T06:08:49;2.0;53.8
78438;SHT31;67736;51.978;5.656;2023-03-01T06:11:19;2.0;53.8
78438;SHT31;67736;51.978;5.656;2023-03-01T06:13:49;1.9;54.0
78438;SHT31;67736;51.978;5.656;2023-03-01T06:16:19;1.9;54.2
78438;SHT31;67736;51.978;5.656;2023-03-01T06:18:49;1.9;54.3
78438;SHT31;67736;51.978;5.656;2023-03-01T06:21:20;1.9;54.1
78438;SHT31;67736;51.978;5.656;2023-03-01T06:23:50;1.9;54.3
78438;SHT31;67736;51.978;5.656;2023-03-01T06:26:20;1.9;54.2
78438;SHT31;67736;51.978;5.656;2023-03-01T06:28:49;1.9;54.0
78438;SHT31;67736;51.978;5.656;2023-03-01T06:31:19;1.9;53.8
78438;SHT31;67736;51.978;5.656;2023-03-01T06:33:49;1.9;54.1
78438;SHT31;67736;51.978;5.656;2023-03-01T06:36:18;2.0;53.9
78438;SHT31;67736;51.978;5.656;2023-03-01T06:38:49;2.0;53.9
78438;SHT31;67736;51.978;5.656;2023-03-01T06:41:20;2.0;53.9
78438;SHT31;67736;51.978;5.656;2023-03-01T06:43:50;2.0;53.9
78438;SHT31;67736;51.978;5.656;2023-03-01T06:46:22;2.0;53.9
78438;SHT31;67736;51.978;5.656;2023-03-01T06:48:51;2.0;53.9
78438;SHT31;67736;51.978;5.656;2023-03-01T06:51:21;2.0;53.8
78438;SHT31;67736;51.978;5.656;2023-03-01T06:53:52;2.0;54.2
78438;SHT31;67736;51.978;5.656;2023-03-01T06:56:22;2.0;54.4
78438;SHT31;67736;51.978;5.656;2023-03-01T06:58:52;2.0;54.2
78438;SHT31;67736;51.978;5.656;2023-03-01T07:01:21;2.1;54.3
78438;SHT31;67736;51.978;5.656;2023-03-01T07:03:51;2.1;54.6
78438;SHT31;67736;51.978;5.656;2023-03-01T07:06:21;2.1;54.5
78438;SHT31;67736;51.978;5.656;2023-03-01T07:08:51;2.1;54.6
78438;SHT31;67736;51.978;5.656;2023-03-01T07:11:24;2.1;54.9
78438;SHT31;67736;51.978;5.656;2023-03-01T07:13:53;2.2;55.3
78438;SHT31;67736;51.978;5.656;2023-03-01T07:16:23;2.2;55.5
78438;SHT31;67736;51.978;5.656;2023-03-01T07:18:53;2.2;55.8
78438;SHT31;67736;51.978;5.656;2023-03-01T07:21:23;2.3;56.2
78438;SHT31;67736;51.978;5.656;2023-03-01T07:23:52;2.4;56.1
78438;SHT31;67736;51.978;5.656;2023-03-01T07:26:22;2.5;55.9
78438;SHT31;67736;51.978;5.656;2023-03-01T07:28:52;2.7;55.3
78438;SHT31;67736;51.978;5.656;2023-03-01T07:31:22;2.9;54.8
78438;SHT31;67736;51.978;5.656;2023-03-01T07:33:51;3.1;54.7
78438;SHT31;67736;51.978;5.656;2023-03-01T07:36:22;3.2;54.2
78438;SHT31;67736;51.978;5.656;2023-03-01T07:38:51;3.4;53.6
78438;SHT31;67736;51.978;5.656;2023-03-01T07:41:23;3.6;53.5
78438;SHT31;67736;51.978;5.656;2023-03-01T07:43:53;3.8;52.4
78438;SHT31;67736;51.978;5.656;2023-03-01T07:46:22;4.1;52.0
78438;SHT31;67736;51.978;5.656;2023-03-01T07:48:52;4.3;50.7
78438;SHT31;67736;51.978;5.656;2023-03-01T07:51:22;4.6;49.5
78438;SHT31;67736;51.978;5.656;2023-03-01T07:53:51;4.8;49.0
78438;SHT31;67736;51.978;5.656;2023-03-01T07:56:21;5.1;48.7
78438;SHT31;67736;51.978;5.656;2023-03-01T07:58:51;5.3;47.3
78438;SHT31;67736;51.978;5.656;2023-03-01T08:01:21;5.5;46.3
78438;SHT31;67736;51.978;5.656;2023-03-01T08:03:53;5.7;45.9
78438;SHT31;67736;51.978;5.656;2023-03-01T08:06:24;5.9;45.7
78438;SHT31;67736;51.978;5.656;2023-03-01T08:08:54;6.1;44.5
78438;SHT31;67736;51.978;5.656;2023-03-01T08:11:25;6.3;44.3
78438;SHT31;67736;51.978;5.656;2023-03-01T08:13:56;6.4;44.1
78438;SHT31;67736;51.978;5.656;2023-03-01T08:16:26;6.6;43.9
78438;SHT31;67736;51.978;5.656;2023-03-01T08:18:56;6.8;42.9
78438;SHT31;67736;51.978;5.656;2023-03-01T08:21:28;7.0;42.5
78438;SHT31;67736;51.978;5.656;2023-03-01T08:23:58;7.2;42.3
78438;SHT31;67736;51.978;5.656;2023-03-01T08:26:28;7.3;42.6
78438;SHT31;67736;51.978;5.656;2023-03-01T08:29:00;7.5;42.3
78438;SHT31;67736;51.978;5.656;2023-03-01T08:31:32;7.8;41.3
78438;SHT31;67736;51.978;5.656;2023-03-01T08:34:05;8.0;41.1
78438;SHT31;67736;51.978;5.656;2023-03-01T08:36:36;8.2;39.7
78438;SHT31;67736;51.978;5.656;2023-03-01T08:39:08;8.4;39.6
78438;SHT31;67736;51.978;5.656;2023-03-01T08:41:38;8.5;39.5
78438;SHT31;67736;51.978;5.656;2023-03-01T08:44:10;8.6;39.1
78438;SHT31;67736;51.978;5.656;2023-03-01T08:46:42;8.8;39.0
78438;SHT31;67736;51.978;5.656;2023-03-01T08:49:15;8.9;37.8
78438;SHT31;67736;51.978;5.656;2023-03-01T08:51:46;9.0;37.4
78438;SHT31;67736;51.978;5.656;2023-03-01T08:54:18;9.1;37.5
78438;SHT31;67736;51.978;5.656;2023-03-01T08:56:48;9.2;36.7
78438;SHT31;67736;51.978;5.656;2023-03-01T08:59:18;9.3;36.8
78438;SHT31;67736;51.978;5.656;2023-03-01T09:01:50;9.3;36.8
78438;SHT31;67736;51.978;5.656;2023-03-01T09:04:22;9.4;36.8
78438;SHT31;67736;51.978;5.656;2023-03-01T09:06:52;9.4;36.9
78438;SHT31;67736;51.978;5.656;2023-03-01T09:09:21;9.5;36.9
78438;SHT31;67736;51.978;5.656;2023-03-01T09:11:51;9.5;36.6
78438;SHT31;67736;51.978;5.656;2023-03-01T09:14:21;9.6;36.4
78438;SHT31;67736;51.978;5.656;2023-03-01T09:16:50;9.7;36.1
78438;SHT31;67736;51.978;5.656;2023-03-01T09:19:20;9.8;36.1
78438;SHT31;67736;51.978;5.656;2023-03-01T09:21:50;9.8;35.9
78438;SHT31;67736;51.978;5.656;2023-03-01T09:24:23;9.9;35.8
78438;SHT31;67736;51.978;5.656;2023-03-01T09:26:56;10.0;35.6
78438;SHT31;67736;51.978;5.656;2023-03-01T09:29:27;10.1;36.3
78438;SHT31;67736;51.978;5.656;2023-03-01T09:31:57;10.2;35.8
78438;SHT31;67736;51.978;5.656;2023-03-01T09:34:28;10.3;35.5
78438;SHT31;67736;51.978;5.656;2023-03-01T09:36:59;10.3;35.5
78438;SHT31;67736;51.978;5.656;2023-03-01T09:39:29;10.4;34.8
78438;SHT31;67736;51.978;5.656;2023-03-01T09:42:01;10.5;34.5
78438;SHT31;67736;51.978;5.656;2023-03-01T09:44:38;10.5;34.6
78438;SHT31;67736;51.978;5.656;2023-03-01T09:47:17;10.6;34.4
78438;SHT31;67736;51.978;5.656;2023-03-01T09:49:57;10.6;33.6
78438;SHT31;67736;51.978;5.656;2023-03-01T09:52:35;10.7;33.2
78438;SHT31;67736;51.978;5.656;2023-03-01T09:55:12;10.7;33.2
78438;SHT31;67736;51.978;5.656;2023-03-01T09:57:47;10.8;33.5
78438;SHT31;67736;51.978;5.656;2023-03-01T10:00:29;10.9;32.7
78438;SHT31;67736;51.978;5.656;2023-03-01T10:03:13;11.0;32.1
78438;SHT31;67736;51.978;5.656;2023-03-01T10:05:52;11.0;31.7
78438;SHT31;67736;51.978;5.656;2023-03-01T10:08:31;11.1;31.4
78438;SHT31;67736;51.978;5.656;2023-03-01T10:11:05;11.1;31.2
78438;SHT31;67736;51.978;5.656;2023-03-01T10:13:48;11.1;31.2
78438;SHT31;67736;51.978;5.656;2023-03-01T10:16:25;11.2;30.9
78438;SHT31;67736;51.978;5.656;2023-03-01T10:19:00;11.2;30.9
78438;SHT31;67736;51.978;5.656;2023-03-01T10:21:39;11.2;30.6
78438;SHT31;67736;51.978;5.656;2023-03-01T10:24:14;11.2;30.6
78438;SHT31;67736;51.978;5.656;2023-03-01T10:26:55;11.3;30.1
78438;SHT31;67736;51.978;5.656;2023-03-01T10:29:31;11.3;30.1
78438;SHT31;67736;51.978;5.656;2023-03-01T10:32:04;11.3;29.8
78438;SHT31;67736;51.978;5.656;2023-03-01T10:34:35;11.2;29.8
78438;SHT31;67736;51.978;5.656;2023-03-01T10:37:12;11.1;29.9
78438;SHT31;67736;51.978;5.656;2023-03-01T10:40:02;11.0;30.0
78438;SHT31;67736;51.978;5.656;2023-03-01T10:42:38;10.9;29.9
78438;SHT31;67736;51.978;5.656;2023-03-01T10:45:32;10.9;30.0
78438;SHT31;67736;51.978;5.656;2023-03-01T10:48:14;10.8;30.1
78438;SHT31;67736;51.978;5.656;2023-03-01T10:50:46;10.7;30.3
78438;SHT31;67736;51.978;5.656;2023-03-01T10:53:23;10.6;30.7
78438;SHT31;67736;51.978;5.656;2023-03-01T10:56:01;10.6;30.6
78438;SHT31;67736;51.978;5.656;2023-03-01T10:58:32;10.5;31.3
78438;SHT31;67736;51.978;5.656;2023-03-01T11:01:05;10.5;31.0
78438;SHT31;67736;51.978;5.656;2023-03-01T11:03:38;10.5;30.8
78438;SHT31;67736;51.978;5.656;2023-03-01T11:06:21;10.4;31.2
78438;SHT31;67736;51.978;5.656;2023-03-01T11:08:52;10.4;30.8
78438;SHT31;67736;51.978;5.656;2023-03-01T11:11:30;10.3;30.9
78438;SHT31;67736;51.978;5.656;2023-03-01T11:14:06;10.3;31.1
78438;SHT31;67736;51.978;5.656;2023-03-01T11:16:38;10.2;31.6
78438;SHT31;67736;51.978;5.656;2023-03-01T11:19:19;10.2;32.1
78438;SHT31;67736;51.978;5.656;2023-03-01T11:21:57;10.2;31.6
78438;SHT31;67736;51.978;5.656;2023-03-01T11:24:36;10.2;31.2
78438;SHT31;67736;51.978;5.656;2023-03-01T11:27:19;10.1;31.4
78438;SHT31;67736;51.978;5.656;2023-03-01T11:29:54;10.1;31.7
78438;SHT31;67736;51.978;5.656;2023-03-01T11:32:31;10.0;31.3
78438;SHT31;67736;51.978;5.656;2023-03-01T11:35:13;10.0;31.2
78438;SHT31;67736;51.978;5.656;2023-03-01T11:37:56;9.9;31.6
78438;SHT31;67736;51.978;5.656;2023-03-01T11:40:32;9.9;31.0
78438;SHT31;67736;51.978;5.656;2023-03-01T11:43:15;9.8;31.0
78438;SHT31;67736;51.978;5.656;2023-03-01T11:50:20;9.7;31.4
78438;SHT31;67736;51.978;5.656;2023-03-01T11:53:27;9.7;31.9
78438;SHT31;67736;51.978;5.656;2023-03-01T11:56:13;9.7;32.0
78438;SHT31;67736;51.978;5.656;2023-03-01T11:59:06;9.6;32.5
78438;SHT31;67736;51.978;5.656;2023-03-01T12:01:56;9.6;32.2
78438;SHT31;67736;51.978;5.656;2023-03-01T12:04:55;9.5;32.6
78438;SHT31;67736;51.978;5.656;2023-03-01T12:07:35;9.5;33.1
78438;SHT31;67736;51.978;5.656;2023-03-01T12:10:27;9.5;32.9
78438;SHT31;67736;51.978;5.656;2023-03-01T12:13:20;9.5;32.7
78438;SHT31;67736;51.978;5.656;2023-03-01T12:16:06;9.5;33.2
78438;SHT31;67736;51.978;5.656;2023-03-01T12:20:12;9.5;33.5
78438;SHT31;67736;51.978;5.656;2023-03-01T12:22:57;9.5;33.3
78438;SHT31;67736;51.978;5.656;2023-03-01T12:25:34;9.5;33.3
78438;SHT31;67736;51.978;5.656;2023-03-01T12:28:42;9.5;33.2
78438;SHT31;67736;51.978;5.656;2023-03-01T12:31:34;9.5;33.4
78438;SHT31;67736;51.978;5.656;2023-03-01T12:34:23;9.5;32.9
78438;SHT31;67736;51.978;5.656;2023-03-01T12:37:14;9.5;33.1
78438;SHT31;67736;51.978;5.656;2023-03-01T12:40:01;9.6;33.8
78438;SHT31;67736;51.978;5.656;2023-03-01T12:42:41;9.6;32.8
78438;SHT31;67736;51.978;5.656;2023-03-01T12:45:37;9.6;32.9
78438;SHT31;67736;51.978;5.656;2023-03-01T12:48:43;9.6;33.0
78438;SHT31;67736;51.978;5.656;2023-03-01T12:51:20;9.6;33.2
78438;SHT31;67736;51.978;5.656;2023-03-01T12:53:55;9.6;33.0
78438;SHT31;67736;51.978;5.656;2023-03-01T12:56:28;9.6;31.8
78438;SHT31;67736;51.978;5.656;2023-03-01T12:59:06;9.6;32.1
78438;SHT31;67736;51.978;5.656;2023-03-01T13:01:48;9.6;32.6
78438;SHT31;67736;51.978;5.656;2023-03-01T13:04:45;9.6;32.8
78438;SHT31;67736;51.978;5.656;2023-03-01T13:07:26;9.6;32.5
78438;SHT31;67736;51.978;5.656;2023-03-01T13:10:10;9.6;32.6
78438;SHT31;67736;51.978;5.656;2023-03-01T13:12:44;9.6;32.7
78438;SHT31;67736;51.978;5.656;2023-03-01T13:15:31;9.6;33.0
78438;SHT31;67736;51.978;5.656;2023-03-01T13:18:03;9.6;32.6
78438;SHT31;67736;51.978;5.656;2023-03-01T13:20:47;9.6;32.9
78438;SHT31;67736;51.978;5.656;2023-03-01T13:23:28;9.6;32.6
78438;SHT31;67736;51.978;5.656;2023-03-01T13:26:12;9.7;32.7
78438;SHT31;67736;51.978;5.656;2023-03-01T13:28:51;9.7;33.1
78438;SHT31;67736;51.978;5.656;2023-03-01T13:31:59;9.7;33.0
78438;SHT31;67736;51.978;5.656;2023-03-01T13:34:50;9.7;33.5
78438;SHT31;67736;51.978;5.656;2023-03-01T13:37:23;9.7;33.4
78438;SHT31;67736;51.978;5.656;2023-03-01T13:39:58;9.7;32.8
78438;SHT31;67736;51.978;5.656;2023-03-01T13:42:43;9.7;32.9
78438;SHT31;67736;51.978;5.656;2023-03-01T13:45:20;9.7;32.8
78438;SHT31;67736;51.978;5.656;2023-03-01T13:47:54;9.7;32.5
78438;SHT31;67736;51.978;5.656;2023-03-01T13:50:29;9.7;32.5
78438;SHT31;67736;51.978;5.656;2023-03-01T13:53:05;9.7;32.9
78438;SHT31;67736;51.978;5.656;2023-03-01T13:55:42;9.7;32.9
78438;SHT31;67736;51.978;5.656;2023-03-01T13:58:22;9.7;32.9
78438;SHT31;67736;51.978;5.656;2023-03-01T14:01:04;9.7;33.3
78438;SHT31;67736;51.978;5.656;2023-03-01T14:03:42;9.8;32.9
78438;SHT31;67736;51.978;5.656;2023-03-01T14:06:15;9.8;32.6
78438;SHT31;67736;51.978;5.656;2023-03-01T14:08:46;9.8;32.9
78438;SHT31;67736;51.978;5.656;2023-03-01T14:11:35;9.8;32.3
78438;SHT31;67736;51.978;5.656;2023-03-01T14:17:52;9.8;32.6
78438;SHT31;67736;51.978;5.656;2023-03-01T14:20:27;9.8;32.7
78438;SHT31;67736;51.978;5.656;2023-03-01T14:22:59;9.8;32.1
78438;SHT31;67736;51.978;5.656;2023-03-01T14:25:32;9.8;32.2
78438;SHT31;67736;51.978;5.656;2023-03-01T14:28:16;9.8;32.5
78438;SHT31;67736;51.978;5.656;2023-03-01T14:30:49;9.8;32.3
78438;SHT31;67736;51.978;5.656;2023-03-01T14:33:24;9.8;31.9
78438;SHT31;67736;51.978;5.656;2023-03-01T14:35:56;9.8;32.2
78438;SHT31;67736;51.978;5.656;2023-03-01T14:38:32;9.8;32.4
78438;SHT31;67736;51.978;5.656;2023-03-01T14:41:06;9.8;31.9
78438;SHT31;67736;51.978;5.656;2023-03-01T14:43:41;9.8;31.8
78438;SHT31;67736;51.978;5.656;2023-03-01T14:46:19;9.8;31.8
78438;SHT31;67736;51.978;5.656;2023-03-01T14:48:54;9.8;32.1
78438;SHT31;67736;51.978;5.656;2023-03-01T14:51:25;9.8;32.5
78438;SHT31;67736;51.978;5.656;2023-03-01T14:53:58;9.8;32.5
78438;SHT31;67736;51.978;5.656;2023-03-01T14:56:44;9.8;32.2
78438;SHT31;67736;51.978;5.656;2023-03-01T14:59:16;9.9;32.4
78438;SHT31;67736;51.978;5.656;2023-03-01T15:01:48;9.9;32.0
78438;SHT31;67736;51.978;5.656;2023-03-01T15:04:20;9.9;32.0
78438;SHT31;67736;51.978;5.656;2023-03-01T15:06:54;9.9;31.6
78438;SHT31;67736;51.978;5.656;2023-03-01T15:09:24;9.8;31.5
78438;SHT31;67736;51.978;5.656;2023-03-01T15:11:53;9.8;31.5
78438;SHT31;67736;51.978;5.656;2023-03-01T15:14:39;9.8;31.6
78438;SHT31;67736;51.978;5.656;2023-03-01T15:17:28;9.8;32.2
78438;SHT31;67736;51.978;5.656;2023-03-01T15:20:02;9.8;32.5
78438;SHT31;67736;51.978;5.656;2023-03-01T15:22:32;9.8;31.5
78438;SHT31;67736;51.978;5.656;2023-03-01T15:25:03;9.8;31.6
78438;SHT31;67736;51.978;5.656;2023-03-01T15:27:33;9.8;31.4
78438;SHT31;67736;51.978;5.656;2023-03-01T15:30:04;9.8;31.2
78438;SHT31;67736;51.978;5.656;2023-03-01T15:32:35;9.8;31.1
78438;SHT31;67736;51.978;5.656;2023-03-01T15:35:40;9.7;30.9
78438;SHT31;67736;51.978;5.656;2023-03-01T15:38:36;9.7;31.0
78438;SHT31;67736;51.978;5.656;2023-03-01T15:41:24;9.7;31.3
78438;SHT31;67736;51.978;5.656;2023-03-01T15:43:55;9.7;31.2
78438;SHT31;67736;51.978;5.656;2023-03-01T15:46:28;9.7;31.3
78438;SHT31;67736;51.978;5.656;2023-03-01T15:49:01;9.7;31.2
78438;SHT31;67736;51.978;5.656;2023-03-01T15:51:36;9.7;31.3
78438;SHT31;67736;51.978;5.656;2023-03-01T15:54:17;9.7;30.8
78438;SHT31;67736;51.978;5.656;2023-03-01T15:56:47;9.7;30.8
78438;SHT31;67736;51.978;5.656;2023-03-01T15:59:18;9.7;31.0
78438;SHT31;67736;51.978;5.656;2023-03-01T16:01:51;9.6;31.0
78438;SHT31;67736;51.978;5.656;2023-03-01T16:04:21;9.6;31.3
78438;SHT31;67736;51.978;5.656;2023-03-01T16:06:52;9.6;31.7
78438;SHT31;67736;51.978;5.656;2023-03-01T16:09:25;9.6;31.0
78438;SHT31;67736;51.978;5.656;2023-03-01T16:11:55;9.6;30.8
78438;SHT31;67736;51.978;5.656;2023-03-01T16:14:27;9.6;31.1
78438;SHT31;67736;51.978;5.656;2023-03-01T16:16:58;9.6;30.8
78438;SHT31;67736;51.978;5.656;2023-03-01T16:19:28;9.6;31.2
78438;SHT31;67736;51.978;5.656;2023-03-01T16:21:58;9.6;31.0
78438;SHT31;67736;51.978;5.656;2023-03-01T16:24:28;9.6;30.9
78438;SHT31;67736;51.978;5.656;2023-03-01T16:26:57;9.5;31.0
78438;SHT31;67736;51.978;5.656;2023-03-01T16:29:27;9.5;31.0
78438;SHT31;67736;51.978;5.656;2023-03-01T16:31:59;9.5;31.2
78438;SHT31;67736;51.978;5.656;2023-03-01T16:34:29;9.5;30.9
78438;SHT31;67736;51.978;5.656;2023-03-01T16:36:59;9.5;31.2
78438;SHT31;67736;51.978;5.656;2023-03-01T16:39:28;9.5;31.1
78438;SHT31;67736;51.978;5.656;2023-03-01T16:41:59;9.5;30.9
78438;SHT31;67736;51.978;5.656;2023-03-01T16:44:29;9.5;31.0
78438;SHT31;67736;51.978;5.656;2023-03-01T16:46:59;9.5;31.0
78438;SHT31;67736;51.978;5.656;2023-03-01T16:49:28;9.5;31.4
78438;SHT31;67736;51.978;5.656;2023-03-01T16:52:00;9.5;31.5
78438;SHT31;67736;51.978;5.656;2023-03-01T16:54:30;9.5;31.3
78438;SHT31;67736;51.978;5.656;2023-03-01T16:56:59;9.5;31.6
78438;SHT31;67736;51.978;5.656;2023-03-01T16:59:29;9.4;31.6
78438;SHT31;67736;51.978;5.656;2023-03-01T17:01:59;9.4;31.9
78438;SHT31;67736;51.978;5.656;2023-03-01T17:04:29;9.4;32.1
78438;SHT31;67736;51.978;5.656;2023-03-01T17:06:58;9.4;32.3
78438;SHT31;67736;51.978;5.656;2023-03-01T17:09:28;9.4;32.6
78438;SHT31;67736;51.978;5.656;2023-03-01T17:11:58;9.3;33.1